Time;durP1;ratioP1;P1;durP2;ratioP2;P2;SDS_P1;SDS_P2;PMS_P1;PMS_P2;Temp;Humidity;BMP_temperature;BMP_pressure;BME280_temperature;BME280_humidity;BME280_pressure;Samples;Min_cycle;Max_cycle;Signal;HPM_P1;HPM_P2
2022/02/23 00:01:15;;;;;;;;;;;;;;;;;;5082104;28;19921;-61
2022/02/23 00:03:42;;;;;;;;;;;;;;;;;;5098011;28;20042;-61
2022/02/23 00:06:11;;;;;;;;;;;;;;;;;;5113815;28;19953;-56
2022/02/23 00:08:40;;;;;;;;;;;;;;;;;;5094068;28;19977;-58
2022/02/23 00:11:07;;;;;;;;;;;;;;;;;;5093443;28;19908;-59
2022/02/23 00:13:34;;;;;;;;;;;;;;;;;;5090889;28;19919;-55
2022/02/23 00:16:00;;;;;;;;;;;;;;;;;;5073407;28;20278;-60
2022/02/23 00:18:27;;;;;;;;;;;;;;;;;;5088582;28;20347;-59
2022/02/23 00:20:53;;;;;;;;;;;;;;;;;;5073011;28;19923;-59
2022/02/23 00:23:19;;;;;;;;;;;;;;;;;;5092129;28;19920;-59
2022/02/23 00:25:46;;;;;;;;;;;;;;;;;;5089671;28;19919;-58
2022/02/23 00:28:18;;;;;;;;;;;;;;;;;;5081835;28;19916;-60
2022/02/23 00:30:54;;;;;;;;;;;;;;;;;;5091373;28;20324;-57
2022/02/23 00:33:30;;;;;;;;;;;;;;;;;;;;;
2022/02/23 00:35:57;;;;;;;;;;;;;;;;;;5073319;28;19915;-57
2022/02/23 00:38:23;;;;;;;;;;;;;;;;;;5072697;28;20336;-59
2022/02/23 00:40:50;;;;;;;;;;;;;;;;;;5073597;28;19924;-55
2022/02/23 00:43:16;;;;;;;;;;;;;;;;;;5077961;28;20577;-58
2022/02/23 00:45:43;;;;;;;;;;;;;;;;;;5088314;28;19908;-58
2022/02/23 00:48:15;;;;;;;;;;;;;;;;;;5098212;28;20714;-51
2022/02/23 00:50:48;;;;;;;;;;;;;;;;;;5081349;28;20368;-52
2022/02/23 00:53:15;;;;;;;;;;;;;;;;;;5087522;28;19916;-57
2022/02/23 00:55:42;;;;;;;;;;;;;;;;;;5088647;28;19908;-56
2022/02/23 00:58:08;;;;;;;;;;;;;;;;;;5089454;28;19908;-56
2022/02/23 01:00:38;;;;;;;;;;;;;;;;;;5088463;28;19968;-54
2022/02/23 01:03:04;;;;;;;;;;;;;;;;;;5087986;28;20003;-50
2022/02/23 01:05:31;;;;;;;;;;;;;;;;;;5089594;28;19908;-57
2022/02/23 01:08:06;;;;;;;;;;;;;;;;;;5088844;28;19994;-55
2022/02/23 01:10:33;;;;;;;;;;;;;;;;;;5088657;28;19912;-54
2022/02/23 01:13:00;;;;;;;;;;;;;;;;;;5091570;28;20438;-56
2022/02/23 01:15:32;;;;;;;;;;;;;;;;;;5092130;28;19965;-53
2022/02/23 01:18:01;;;;;;;;;;;;;;;;;;5085697;28;19925;-50
2022/02/23 01:20:27;;;;;;;;;;;;;;;;;;5085353;28;19921;-53
2022/02/23 01:23:03;;;;;;;;;;;;;;;;;;5089774;28;20382;-53
2022/02/23 01:25:32;;;;;;;;;;;;;;;;;;5078626;28;19923;-49
2022/02/23 01:28:02;;;;;;;;;;;;;;;;;;5086702;28;19915;-51
2022/02/23 01:30:32;;;;;;;;;;;;;;;;;;5070432;28;19927;-49
2022/02/23 01:33:02;;;;;;;;;;;;;;;;;;5077182;28;19978;-50
2022/02/23 01:35:28;;;;;;;;;;;;;;;;;;5077771;28;19909;-53
2022/02/23 01:37:55;;;;;;;;;;;;;;;;;;5066241;28;19915;-54
2022/02/23 01:40:21;;;;;;;;;;;;;;;;;;5085165;28;20062;-53
2022/02/23 01:42:48;;;;;;;;;;;;;;;;;;5081189;28;19956;-48
2022/02/23 01:45:23;;;;;;;;;;;;;;;;;;5070191;28;19915;-57
2022/02/23 01:47:50;;;;;;;;;;;;;;;;;;5081321;28;20003;-51
2022/02/23 01:50:16;;;;;;;;;;;;;;;;;;5084980;28;19909;-54
2022/02/23 01:52:46;;;;;;;;;;;;;;;;;;5088943;28;20421;-49
2022/02/23 01:55:12;;;;;;;;;;;;;;;;;;5077843;28;19908;-53
2022/02/23 01:57:39;;;;;;;;;;;;;;;;;;5081305;28;19909;-56
2022/02/23 02:00:08;;;;;;;;;;;;;;;;;;5077804;28;19922;-53
2022/02/23 02:02:35;;;;;;;;;;;;;;;;;;5079796;28;19912;-56
2022/02/23 02:05:02;;;;;;;;;;;;;;;;;;5076565;28;19917;-53
2022/02/23 02:07:29;;;;;;;;;;;;;;;;;;5084637;28;19930;-49
2022/02/23 02:09:55;;;;;;;;;;;;;;;;;;5082559;28;19916;-61
2022/02/23 02:12:22;;;;;;;;;;;;;;;;;;5087779;28;19916;-52
2022/02/23 02:14:48;;;;;;;;;;;;;;;;;;5074468;28;19909;-53
2022/02/23 02:17:15;;;;;;;;;;;;;;;;;;5084979;28;19923;-57
2022/02/23 02:19:44;;;;;;;;;;;;;;;;;;5081123;28;20406;-55
2022/02/23 02:22:11;;;;;;;;;;;;;;;;;;5090075;28;19916;-55
2022/02/23 02:24:38;;;;;;;;;;;;;;;;;;5087419;28;20004;-59
2022/02/23 02:27:04;;;;;;;;;;;;;;;;;;5092052;28;19916;-52
2022/02/23 02:29:31;;;;;;;;;;;;;;;;;;5092162;28;19999;-52
2022/02/23 02:31:57;;;;;;;;;;;;;;;;;;5089931;28;19908;-58
2022/02/23 02:34:24;;;;;;;;;;;;;;;;;;5086966;28;19916;-57
2022/02/23 02:36:50;;;;;;;;;;;;;;;;;;5091351;28;19908;-49
2022/02/23 02:39:17;;;;;;;;;;;;;;;;;;5089766;28;19928;-52
2022/02/23 02:41:43;;;;;;;;;;;;;;;;;;5091076;28;20377;-53
2022/02/23 02:44:10;;;;;;;;;;;;;;;;;;5088632;28;19915;-58
2022/02/23 02:46:36;;;;;;;;;;;;;;;;;;5091616;28;20438;-52
2022/02/23 02:49:03;;;;;;;;;;;;;;;;;;5089251;28;20005;-52
2022/02/23 02:51:29;;;;;;;;;;;;;;;;;;5090995;28;19917;-53
2022/02/23 02:53:56;;;;;;;;;;;;;;;;;;5088030;28;19919;-55
2022/02/23 02:56:22;;;;;;;;;;;;;;;;;;5089959;28;20276;-54
2022/02/23 02:58:52;;;;;;;;;;;;;;;;;;5088903;28;20474;-53
2022/02/23 03:01:19;;;;;;;;;;;;;;;;;;5090527;28;19923;-54
2022/02/23 03:03:45;;;;;;;;;;;;;;;;;;5086581;28;20011;-56
2022/02/23 03:06:12;;;;;;;;;;;;;;;;;;5090078;28;19915;-52
2022/02/23 03:08:38;;;;;;;;;;;;;;;;;;5091107;28;20008;-57
2022/02/23 03:11:08;;;;;;;;;;;;;;;;;;5090922;28;19911;-54
2022/02/23 03:13:34;;;;;;;;;;;;;;;;;;5086573;28;20278;-54
2022/02/23 03:16:01;;;;;;;;;;;;;;;;;;5088997;28;19912;-51
2022/02/23 03:18:27;;;;;;;;;;;;;;;;;;5088287;28;19916;-54
2022/02/23 03:20:57;;;;;;;;;;;;;;;;;;5071533;28;19920;-56
2022/02/23 03:23:23;;;;;;;;;;;;;;;;;;5052333;28;19924;-51
2022/02/23 03:25:53;;;;;;;;;;;;;;;;;;5071296;28;20198;-50
2022/02/23 03:28:20;;;;;;;;;;;;;;;;;;5071433;28;19908;-62
2022/02/23 03:30:47;;;;;;;;;;;;;;;;;;5072089;28;19953;-52
2022/02/23 03:33:13;;;;;;;;;;;;;;;;;;5070965;28;19916;-49
2022/02/23 03:35:41;;;;;;;;;;;;;;;;;;5070620;28;19955;-45
2022/02/23 03:38:08;;;;;;;;;;;;;;;;;;5069693;28;19954;-57
2022/02/23 03:40:34;;;;;;;;;;;;;;;;;;5071535;28;19917;-54
2022/02/23 03:43:01;;;;;;;;;;;;;;;;;;5068660;28;20347;-53
2022/02/23 03:45:27;;;;;;;;;;;;;;;;;;5069272;28;19909;-49
2022/02/23 03:47:54;;;;;;;;;;;;;;;;;;5071217;28;19963;-53
2022/02/23 03:50:20;;;;;;;;;;;;;;;;;;5071255;28;19931;-50
2022/02/23 03:52:47;;;;;;;;;;;;;;;;;;5074563;28;19909;-54
2022/02/23 03:55:13;;;;;;;;;;;;;;;;;;5068077;28;19916;-54
2022/02/23 03:57:40;;;;;;;;;;;;;;;;;;5069360;28;20367;-50
2022/02/23 04:00:06;;;;;;;;;;;;;;;;;;5072196;28;20289;-58
2022/02/23 04:02:33;;;;;;;;;;;;;;;;;;5070900;28;19920;-57
2022/02/23 04:04:59;;;;;;;;;;;;;;;;;;5067808;28;19908;-54
2022/02/23 04:07:27;;;;;;;;;;;;;;;;;;5069354;28;19962;-57
2022/02/23 04:09:53;;;;;;;;;;;;;;;;;;5069550;28;20360;-60
2022/02/23 04:12:20;;;;;;;;;;;;;;;;;;5069566;28;19938;-55
2022/02/23 04:14:46;;;;;;;;;;;;;;;;;;5068616;28;19915;-59
2022/02/23 04:17:13;;;;;;;;;;;;;;;;;;5068714;28;20298;-53
2022/02/23 04:19:39;;;;;;;;;;;;;;;;;;5073424;28;19968;-56
2022/02/23 04:22:06;;;;;;;;;;;;;;;;;;5071992;28;20252;-59
2022/02/23 04:24:32;;;;;;;;;;;;;;;;;;5045401;28;19962;-56
2022/02/23 04:27:00;;;;;;;;;;;;;;;;;;5069843;28;21193;-56
2022/02/23 04:29:26;;;;;;;;;;;;;;;;;;5067778;28;19912;-58
2022/02/23 04:31:53;;;;;;;;;;;;;;;;;;5071308;28;19913;-55
2022/02/23 04:34:19;;;;;;;;;;;;;;;;;;5068471;28;19913;-59
2022/02/23 04:36:46;;;;;;;;;;;;;;;;;;5069150;28;19909;-56
2022/02/23 04:39:13;;;;;;;;;;;;;;;;;;5069296;28;20267;-56
2022/02/23 04:41:43;;;;;;;;;;;;;;;;;;5069993;28;19924;-52
2022/02/23 04:44:09;;;;;;;;;;;;;;;;;;5066911;28;19916;-56
2022/02/23 04:46:40;;;;;;;;;;;;;;;;;;5074233;28;20042;-51
2022/02/23 04:49:09;;;;;;;;;;;;;;;;;;5058838;28;19909;-52
2022/02/23 04:51:55;;;;;;;;;;;;;;;;;;;;;
2022/02/23 04:54:22;;;;;;;;;;;;;;;;;;5070406;28;19909;-53
2022/02/23 04:56:53;;;;;;;;;;;;;;;;;;5076530;28;19912;-52
2022/02/23 04:59:19;;;;;;;;;;;;;;;;;;5076906;28;19919;-50
2022/02/23 05:01:46;;;;;;;;;;;;;;;;;;5075308;28;19923;-56
2022/02/23 05:04:15;;;;;;;;;;;;;;;;;;5072879;28;19962;-55
2022/02/23 05:06:42;;;;;;;;;;;;;;;;;;5076804;28;20362;-54
2022/02/23 05:09:09;;;;;;;;;;;;;;;;;;5071809;28;19989;-56
2022/02/23 05:11:39;;;;;;;;;;;;;;;;;;5075668;28;19908;-57
2022/02/23 05:14:05;;;;;;;;;;;;;;;;;;5074428;28;19936;-57
2022/02/23 05:16:32;;;;;;;;;;;;;;;;;;5075481;28;20420;-56
2022/02/23 05:18:58;;;;;;;;;;;;;;;;;;5083230;28;20011;-54
2022/02/23 05:21:25;;;;;;;;;;;;;;;;;;5095980;28;20373;-55
2022/02/23 05:23:51;;;;;;;;;;;;;;;;;;5095755;28;20320;-54
2022/02/23 05:26:18;;;;;;;;;;;;;;;;;;5096239;28;19912;-58
2022/02/23 05:28:44;;;;;;;;;;;;;;;;;;5096392;28;19979;-60
2022/02/23 05:31:11;;;;;;;;;;;;;;;;;;5096601;28;19912;-59
2022/02/23 05:44:01;;;;;;;;;;;;;;;;;;6021820;22;20283;-62
2022/02/23 05:46:27;;;;;;;;;;;;;;;;;;5053269;28;20020;-61
2022/02/23 05:48:54;;;;;;;;;;;;;;;;;;5048669;28;19935;-62
2022/02/23 05:51:20;;;;;;;;;;;;;;;;;;5054332;28;19924;-60
2022/02/23 05:53:47;;;;;;;;;;;;;;;;;;5055226;28;19912;-61
2022/02/23 05:56:13;;;;;;;;;;;;;;;;;;5054383;28;20369;-57
2022/02/23 05:58:40;;;;;;;;;;;;;;;;;;5054340;28;19983;-62
2022/02/23 06:01:06;;;;;;;;;;;;;;;;;;5054407;28;19917;-56
2022/02/23 06:03:33;;;;;;;;;;;;;;;;;;5053539;28;19909;-61
2022/02/23 06:06:00;;;;;;;;;;;;;;;;;;5052363;28;19909;-61
2022/02/23 06:08:27;;;;;;;;;;;;;;;;;;5053121;28;19912;-61
2022/02/23 06:10:53;;;;;;;;;;;;;;;;;;5054441;28;19916;-60
2022/02/23 06:13:20;;;;;;;;;;;;;;;;;;5054495;28;20345;-62
2022/02/23 06:15:46;;;;;;;;;;;;;;;;;;5053444;28;19951;-60
2022/02/23 06:18:13;;;;;;;;;;;;;;;;;;5054634;28;19913;-64
2022/02/23 06:20:39;;;;;;;;;;;;;;;;;;5054722;28;20424;-63
2022/02/23 06:23:06;;;;;;;;;;;;;;;;;;5054851;28;19961;-63
2022/02/23 06:25:32;;;;;;;;;;;;;;;;;;5054639;28;19975;-63
2022/02/23 06:27:59;;;;;;;;;;;;;;;;;;5053212;28;19924;-60
2022/02/23 06:30:28;;;;;;;;;;;;;;;;;;5054212;28;20351;-61
2022/02/23 06:33:03;;;;;;;;;;;;;;;;;;5054557;28;20351;-59
2022/02/23 06:35:33;;;;;;;;;;;;;;;;;;5055025;28;19920;-62
2022/02/23 06:37:59;;;;;;;;;;;;;;;;;;5054965;28;20347;-61
2022/02/23 06:40:26;;;;;;;;;;;;;;;;;;5054099;28;19948;-59
2022/02/23 06:42:52;;;;;;;;;;;;;;;;;;5035662;28;19912;-61
2022/02/23 06:45:19;;;;;;;;;;;;;;;;;;5053400;28;20023;-63
2022/02/23 06:47:45;;;;;;;;;;;;;;;;;;5053702;28;19939;-62
2022/02/23 06:50:12;;;;;;;;;;;;;;;;;;5053593;28;19973;-63
2022/02/23 06:52:38;;;;;;;;;;;;;;;;;;5053562;28;19916;-61
2022/02/23 06:55:05;;;;;;;;;;;;;;;;;;5053951;28;19929;-61
2022/02/23 06:57:31;;;;;;;;;;;;;;;;;;5053550;28;19909;-60
2022/02/23 06:59:58;;;;;;;;;;;;;;;;;;5053423;28;20005;-61
2022/02/23 07:02:24;;;;;;;;;;;;;;;;;;5053455;28;19913;-60
2022/02/23 07:04:51;;;;;;;;;;;;;;;;;;5053312;28;20019;-61
2022/02/23 07:07:17;;;;;;;;;;;;;;;;;;5053505;28;19915;-61
2022/02/23 07:09:44;;;;;;;;;;;;;;;;;;5054092;28;19935;-66
2022/02/23 07:12:10;;;;;;;;;;;;;;;;;;5053922;28;19916;-65
2022/02/23 07:14:37;;;;;;;;;;;;;;;;;;5053085;28;20267;-65
2022/02/23 07:17:03;;;;;;;;;;;;;;;;;;5053537;28;19915;-66
2022/02/23 07:19:30;;;;;;;;;;;;;;;;;;5053237;28;20328;-67
2022/02/23 07:21:56;;;;;;;;;;;;;;;;;;5053062;28;19917;-68
2022/02/23 07:24:23;;;;;;;;;;;;;;;;;;5053194;28;20004;-65
2022/02/23 07:26:49;;;;;;;;;;;;;;;;;;5053105;28;19920;-66
2022/02/23 07:29:16;;;;;;;;;;;;;;;;;;5053423;28;19963;-66
2022/02/23 07:31:44;;;;;;;;;;;;;;;;;;5053246;28;19913;-65
2022/02/23 07:34:11;;;;;;;;;;;;;;;;;;5053601;28;19912;-66
2022/02/23 07:36:37;;;;;;;;;;;;;;;;;;5053638;28;20330;-66
2022/02/23 07:39:03;;;;;;;;;;;;;;;;;;5053225;28;19909;-67
2022/02/23 07:41:30;;;;;;;;;;;;;;;;;;5053636;28;19939;-67
2022/02/23 07:43:58;;;;;;;;;;;;;;;;;;5052567;28;19915;-67
2022/02/23 07:46:24;;;;;;;;;;;;;;;;;;5035383;28;20297;-67
2022/02/23 07:48:57;;;;;;;;;;;;;;;;;;5052917;28;19912;-66
2022/02/23 07:51:24;;;;;;;;;;;;;;;;;;5052955;28;19909;-66
2022/02/23 07:53:52;;;;;;;;;;;;;;;;;;5052674;28;19909;-65
2022/02/23 07:56:21;;;;;;;;;;;;;;;;;;5053513;28;20367;-66
2022/02/23 07:58:47;;;;;;;;;;;;;;;;;;5052927;28;19909;-67
2022/02/23 08:01:14;;;;;;;;;;;;;;;;;;5052768;28;19917;-67
2022/02/23 08:03:41;;;;;;;;;;;;;;;;;;5034959;28;19995;-66
2022/02/23 08:06:07;;;;;;;;;;;;;;;;;;5052975;28;19916;-65
2022/02/23 08:08:34;;;;;;;;;;;;;;;;;;5052694;28;19909;-66
2022/02/23 08:11:00;;;;;;;;;;;;;;;;;;5049345;28;19924;-66
2022/02/23 08:13:27;;;;;;;;;;;;;;;;;;5052718;28;19962;-65
2022/02/23 08:21:23;;;;;;;;;;;;;;;;;;5045548;28;20489;-66
2022/02/23 08:23:50;;;;;;;;;;;;;;;;;;5049831;28;19913;-63
2022/02/23 08:26:17;;;;;;;;;;;;;;;;;;5049243;28;19908;-61
2022/02/23 08:28:43;;;;;;;;;;;;;;;;;;5031886;28;20304;-68
2022/02/23 08:31:10;;;;;;;;;;;;;;;;;;5047591;28;19909;-69
2022/02/23 08:33:38;;;;;;;;;;;;;;;;;;5050424;28;19909;-64
2022/02/23 08:36:05;;;;;;;;;;;;;;;;;;5050132;28;20294;-67
2022/02/23 08:38:31;;;;;;;;;;;;;;;;;;5049487;28;20258;-66
2022/02/23 08:41:01;;;;;;;;;;;;;;;;;;5047479;28;19971;-65
2022/02/23 08:43:27;;;;;;;;;;;;;;;;;;5047406;28;19909;-67
2022/02/23 08:45:54;;;;;;;;;;;;;;;;;;5047788;28;19932;-67
2022/02/23 08:48:20;;;;;;;;;;;;;;;;;;5048451;28;20155;-66
2022/02/23 08:50:47;;;;;;;;;;;;;;;;;;5044140;28;19991;-66
2022/02/23 08:53:13;;;;;;;;;;;;;;;;;;5045536;28;19943;-69
2022/02/23 08:55:40;;;;;;;;;;;;;;;;;;5048989;28;19992;-69
2022/02/23 08:58:06;;;;;;;;;;;;;;;;;;5046628;28;20343;-70
2022/02/23 09:00:33;;;;;;;;;;;;;;;;;;5044543;28;19920;-70
2022/02/23 09:02:59;;;;;;;;;;;;;;;;;;5049321;28;20412;-64
2022/02/23 09:05:26;;;;;;;;;;;;;;;;;;5047678;28;20284;-64
2022/02/23 09:07:53;;;;;;;;;;;;;;;;;;5047284;28;19944;-66
2022/02/23 09:10:19;;;;;;;;;;;;;;;;;;5044586;28;19924;-65
2022/02/23 09:12:47;;;;;;;;;;;;;;;;;;5049469;28;19915;-66
2022/02/23 09:15:14;;;;;;;;;;;;;;;;;;5048720;28;19916;-67
2022/02/23 09:17:40;;;;;;;;;;;;;;;;;;5049967;28;19908;-60
2022/02/23 09:20:07;;;;;;;;;;;;;;;;;;5048250;28;19920;-59
2022/02/23 09:22:33;;;;;;;;;;;;;;;;;;5028326;28;19923;-61
2022/02/23 09:24:59;;;;;;;;;;;;;;;;;;5048371;28;20338;-58
2022/02/23 09:27:26;;;;;;;;;;;;;;;;;;5048855;28;19941;-58
2022/02/23 09:29:52;;;;;;;;;;;;;;;;;;5049111;28;19963;-57
2022/02/23 09:32:20;;;;;;;;;;;;;;;;;;5049297;28;19916;-61
2022/02/23 09:34:46;;;;;;;;;;;;;;;;;;5050738;28;20336;-53
2022/02/23 09:37:13;;;;;;;;;;;;;;;;;;5052846;28;19963;-59
2022/02/23 09:39:39;;;;;;;;;;;;;;;;;;5052471;28;20371;-56
2022/02/23 09:42:06;;;;;;;;;;;;;;;;;;5050217;28;20366;-60
2022/02/23 09:44:32;;;;;;;;;;;;;;;;;;5052517;28;20039;-58
2022/02/23 09:46:59;;;;;;;;;;;;;;;;;;5052242;28;19912;-58
2022/02/23 09:49:25;;;;;;;;;;;;;;;;;;5052620;28;19908;-57
2022/02/23 09:51:52;;;;;;;;;;;;;;;;;;5048209;28;19909;-55
2022/02/23 09:54:18;;;;;;;;;;;;;;;;;;5052267;28;19915;-59
2022/02/23 09:56:45;;;;;;;;;;;;;;;;;;5052215;28;19909;-56
2022/02/23 09:59:12;;;;;;;;;;;;;;;;;;5052041;28;20369;-56
2022/02/23 10:01:40;;;;;;;;;;;;;;;;;;5049068;28;20035;-55
2022/02/23 10:04:07;;;;;;;;;;;;;;;;;;5052396;28;20018;-57
2022/02/23 10:06:34;;;;;;;;;;;;;;;;;;5052341;28;19920;-62
2022/02/23 10:09:00;;;;;;;;;;;;;;;;;;5051587;28;19909;-63
2022/02/23 10:11:28;;;;;;;;;;;;;;;;;;5048977;28;19920;-55
2022/02/23 10:13:56;;;;;;;;;;;;;;;;;;5052300;28;19963;-54
2022/02/23 10:16:23;;;;;;;;;;;;;;;;;;5051985;28;19908;-58
2022/02/23 10:18:49;;;;;;;;;;;;;;;;;;5052116;28;19917;-57
2022/02/23 10:21:15;;;;;;;;;;;;;;;;;;5048345;28;19925;-55
2022/02/23 10:23:42;;;;;;;;;;;;;;;;;;5051788;28;20355;-56
2022/02/23 10:26:13;;;;;;;;;;;;;;;;;;5050864;28;19931;-61
2022/02/23 10:28:39;;;;;;;;;;;;;;;;;;5049840;28;19916;-53
2022/02/23 10:31:09;;;;;;;;;;;;;;;;;;5047872;28;19955;-52
2022/02/23 10:33:37;;;;;;;;;;;;;;;;;;5051468;28;19909;-56
2022/02/23 10:36:05;;;;;;;;;;;;;;;;;;5051760;28;20425;-57
2022/02/23 10:38:31;;;;;;;;;;;;;;;;;;5051820;28;19913;-55
2022/02/23 10:40:58;;;;;;;;;;;;;;;;;;5046173;28;20412;-56
2022/02/23 10:43:24;;;;;;;;;;;;;;;;;;5049939;28;19909;-58
2022/02/23 10:45:52;;;;;;;;;;;;;;;;;;5051589;28;19994;-55
2022/02/23 10:48:19;;;;;;;;;;;;;;;;;;5051825;28;19909;-57
2022/02/23 10:50:45;;;;;;;;;;;;;;;;;;5028672;28;19908;-55
2022/02/23 10:53:12;;;;;;;;;;;;;;;;;;5051427;28;19917;-53
2022/02/23 10:55:41;;;;;;;;;;;;;;;;;;5048688;28;20441;-55
2022/02/23 10:58:08;;;;;;;;;;;;;;;;;;5048346;28;19934;-51
2022/02/23 11:00:39;;;;;;;;;;;;;;;;;;5046969;28;19948;-54
2022/02/23 11:03:05;;;;;;;;;;;;;;;;;;5051465;28;19945;-56
2022/02/23 11:05:33;;;;;;;;;;;;;;;;;;5033606;28;19920;-57
2022/02/23 11:08:04;;;;;;;;;;;;;;;;;;5050843;28;19979;-58
2022/02/23 11:10:30;;;;;;;;;;;;;;;;;;5047141;28;20532;-59
2022/02/23 11:12:57;;;;;;;;;;;;;;;;;;5050960;28;20513;-58
2022/02/23 11:15:24;;;;;;;;;;;;;;;;;;5051057;28;20363;-58
2022/02/23 11:17:50;;;;;;;;;;;;;;;;;;5050792;28;19913;-55
2022/02/23 11:20:18;;;;;;;;;;;;;;;;;;5048093;28;19932;-58
2022/02/23 11:22:44;;;;;;;;;;;;;;;;;;5049570;28;19916;-56
2022/02/23 11:25:11;;;;;;;;;;;;;;;;;;5050131;28;19912;-56
2022/02/23 11:27:37;;;;;;;;;;;;;;;;;;5051165;28;19917;-58
2022/02/23 11:30:07;;;;;;;;;;;;;;;;;;5050269;28;21033;-59
2022/02/23 11:32:33;;;;;;;;;;;;;;;;;;5047971;28;20002;-61
2022/02/23 11:35:00;;;;;;;;;;;;;;;;;;5050365;28;19996;-63
2022/02/23 11:37:26;;;;;;;;;;;;;;;;;;5051119;28;19908;-56
2022/02/23 11:39:53;;;;;;;;;;;;;;;;;;5051491;28;19909;-58
2022/02/23 11:42:19;;;;;;;;;;;;;;;;;;5046679;28;19921;-63
2022/02/23 11:44:49;;;;;;;;;;;;;;;;;;5050266;28;19929;-58
2022/02/23 11:52:45;;;;;;;;;;;;;;;;;;5053078;28;20022;-57
2022/02/23 11:55:12;;;;;;;;;;;;;;;;;;5035427;28;19952;-59
2022/02/23 11:57:42;;;;;;;;;;;;;;;;;;5053265;28;19919;-59
2022/02/23 12:02:52;;;;;;;;;;;;;;;;;;5052664;28;19942;-58
2022/02/23 12:05:19;;;;;;;;;;;;;;;;;;5053222;28;19916;-56
2022/02/23 12:07:46;;;;;;;;;;;;;;;;;;5052877;28;19909;-59
2022/02/23 12:10:13;;;;;;;;;;;;;;;;;;5052941;28;19909;-59
2022/02/23 12:12:52;;;;;;;;;;;;;;;;;;5052900;28;19936;-59
2022/02/23 12:15:18;;;;;;;;;;;;;;;;;;5052091;28;20355;-61
2022/02/23 12:17:48;;;;;;;;;;;;;;;;;;5052633;28;20259;-57
2022/02/23 12:20:17;;;;;;;;;;;;;;;;;;5052687;28;19915;-60
2022/02/23 12:22:44;;;;;;;;;;;;;;;;;;5052506;28;19999;-58
2022/02/23 12:25:10;;;;;;;;;;;;;;;;;;5053215;28;19916;-58
2022/02/23 12:27:36;;;;;;;;;;;;;;;;;;5052744;28;19908;-55
2022/02/23 12:30:03;;;;;;;;;;;;;;;;;;5052760;28;19909;-58
2022/02/23 12:32:30;;;;;;;;;;;;;;;;;;5052402;28;19931;-59
2022/02/23 12:34:56;;;;;;;;;;;;;;;;;;5052288;28;20348;-58
2022/02/23 12:37:23;;;;;;;;;;;;;;;;;;5034365;28;19909;-58
2022/02/23 12:39:50;;;;;;;;;;;;;;;;;;5050799;28;20362;-59
2022/02/23 12:42:16;;;;;;;;;;;;;;;;;;5051708;28;20385;-59
2022/02/23 12:44:47;;;;;;;;;;;;;;;;;;5052442;28;20357;-58
2022/02/23 12:47:16;;;;;;;;;;;;;;;;;;5044747;28;19913;-58
2022/02/23 12:49:42;;;;;;;;;;;;;;;;;;5048667;28;19952;-55
2022/02/23 12:52:09;;;;;;;;;;;;;;;;;;5049174;28;20103;-58
2022/02/23 12:54:35;;;;;;;;;;;;;;;;;;5049557;28;19908;-57
2022/02/23 12:57:02;;;;;;;;;;;;;;;;;;5049202;28;19952;-57
2022/02/23 12:59:29;;;;;;;;;;;;;;;;;;5048246;28;19909;-58
2022/02/23 13:01:56;;;;;;;;;;;;;;;;;;5048747;28;19963;-59
2022/02/23 13:04:23;;;;;;;;;;;;;;;;;;5049447;28;19920;-57
2022/02/23 13:06:49;;;;;;;;;;;;;;;;;;5052499;28;19944;-56
2022/02/23 13:09:16;;;;;;;;;;;;;;;;;;5050250;28;19916;-59
2022/02/23 13:11:42;;;;;;;;;;;;;;;;;;5052278;28;19912;-55
2022/02/23 13:14:09;;;;;;;;;;;;;;;;;;5052883;28;19920;-55
2022/02/23 13:16:35;;;;;;;;;;;;;;;;;;5052872;28;19913;-56
2022/02/23 13:19:02;;;;;;;;;;;;;;;;;;5049962;28;19952;-59
2022/02/23 13:21:28;;;;;;;;;;;;;;;;;;5052701;28;19928;-59
2022/02/23 13:23:55;;;;;;;;;;;;;;;;;;5053194;28;19917;-57
2022/02/23 13:26:21;;;;;;;;;;;;;;;;;;5053211;28;19908;-54
2022/02/23 13:28:48;;;;;;;;;;;;;;;;;;5048964;28;19966;-59
2022/02/23 13:31:14;;;;;;;;;;;;;;;;;;5053107;28;19988;-57
2022/02/23 13:33:41;;;;;;;;;;;;;;;;;;5035350;28;19908;-56
2022/02/23 13:36:07;;;;;;;;;;;;;;;;;;5053172;28;19913;-54
2022/02/23 13:38:36;;;;;;;;;;;;;;;;;;5052201;28;19916;-59
2022/02/23 13:41:02;;;;;;;;;;;;;;;;;;5051299;28;19916;-55
2022/02/23 13:43:34;;;;;;;;;;;;;;;;;;5053207;28;19909;-56
2022/02/23 13:46:01;;;;;;;;;;;;;;;;;;5052259;28;20278;-51
2022/02/23 13:48:28;;;;;;;;;;;;;;;;;;5052951;28;19967;-55
2022/02/23 13:50:55;;;;;;;;;;;;;;;;;;5050491;28;20358;-58
2022/02/23 13:53:22;;;;;;;;;;;;;;;;;;5052949;28;19952;-56
2022/02/23 13:55:50;;;;;;;;;;;;;;;;;;5033783;28;19932;-58
2022/02/23 13:58:17;;;;;;;;;;;;;;;;;;5051968;28;19909;-58
2022/02/23 14:00:45;;;;;;;;;;;;;;;;;;5051251;28;19966;-57
2022/02/23 14:03:12;;;;;;;;;;;;;;;;;;5052747;28;19924;-58
2022/02/23 14:05:39;;;;;;;;;;;;;;;;;;5052237;28;19909;-61
2022/02/23 14:08:05;;;;;;;;;;;;;;;;;;5052569;28;19909;-60
2022/02/23 14:10:32;;;;;;;;;;;;;;;;;;5052339;28;19963;-58
2022/02/23 14:13:00;;;;;;;;;;;;;;;;;;5050308;28;19954;-54
2022/02/23 14:15:27;;;;;;;;;;;;;;;;;;5052128;28;20007;-57
2022/02/23 14:17:54;;;;;;;;;;;;;;;;;;5051757;28;19996;-58
2022/02/23 14:20:21;;;;;;;;;;;;;;;;;;5052105;28;19995;-60
2022/02/23 14:22:47;;;;;;;;;;;;;;;;;;5049805;28;19908;-55
2022/02/23 14:25:14;;;;;;;;;;;;;;;;;;5052414;28;20356;-54
2022/02/23 14:27:40;;;;;;;;;;;;;;;;;;5051632;28;20358;-56
2022/02/23 14:30:07;;;;;;;;;;;;;;;;;;5051999;28;19916;-57
2022/02/23 14:32:34;;;;;;;;;;;;;;;;;;5049064;28;20367;-57
2022/02/23 14:35:02;;;;;;;;;;;;;;;;;;5049953;28;19917;-55
2022/02/23 14:37:28;;;;;;;;;;;;;;;;;;5052005;28;19916;-57
2022/02/23 14:39:55;;;;;;;;;;;;;;;;;;5050708;28;19959;-57
2022/02/23 14:42:21;;;;;;;;;;;;;;;;;;5048988;28;19927;-57
2022/02/23 14:44:48;;;;;;;;;;;;;;;;;;5051318;28;19920;-55
2022/02/23 14:47:14;;;;;;;;;;;;;;;;;;5051932;28;19909;-54
2022/02/23 14:49:41;;;;;;;;;;;;;;;;;;5051145;28;19916;-59
2022/02/23 14:52:07;;;;;;;;;;;;;;;;;;5048546;28;19955;-58
2022/02/23 14:54:34;;;;;;;;;;;;;;;;;;5051335;28;19909;-57
2022/02/23 14:57:02;;;;;;;;;;;;;;;;;;5051210;28;19948;-58
2022/02/23 14:59:29;;;;;;;;;;;;;;;;;;5051453;28;19917;-58
2022/02/23 15:01:55;;;;;;;;;;;;;;;;;;5048269;28;19943;-58
2022/02/23 15:04:22;;;;;;;;;;;;;;;;;;5051275;28;19909;-59
2022/02/23 15:06:48;;;;;;;;;;;;;;;;;;5050914;28;19909;-56
2022/02/23 15:09:14;;;;;;;;;;;;;;;;;;5051373;28;19908;-58
2022/02/23 15:11:41;;;;;;;;;;;;;;;;;;5047977;28;19962;-57
2022/02/23 15:14:07;;;;;;;;;;;;;;;;;;5051245;28;20367;-57
2022/02/23 15:16:34;;;;;;;;;;;;;;;;;;5050788;28;19908;-57
2022/02/23 15:19:00;;;;;;;;;;;;;;;;;;5050952;28;19909;-58
2022/02/23 15:21:28;;;;;;;;;;;;;;;;;;5048754;28;19924;-59
2022/02/23 15:23:55;;;;;;;;;;;;;;;;;;5050637;28;19909;-58
2022/02/23 15:26:21;;;;;;;;;;;;;;;;;;5050958;28;19917;-57
2022/02/23 15:28:47;;;;;;;;;;;;;;;;;;5050125;28;19988;-57
2022/02/23 15:31:15;;;;;;;;;;;;;;;;;;5048173;28;20002;-59
2022/02/23 15:33:42;;;;;;;;;;;;;;;;;;5050514;28;20282;-60
2022/02/23 15:36:08;;;;;;;;;;;;;;;;;;5051001;28;19909;-57
2022/02/23 15:38:35;;;;;;;;;;;;;;;;;;5050693;28;20270;-59
2022/02/23 15:41:01;;;;;;;;;;;;;;;;;;5047840;28;19943;-58
2022/02/23 15:43:28;;;;;;;;;;;;;;;;;;5050804;28;19924;-58
2022/02/23 15:45:54;;;;;;;;;;;;;;;;;;5050262;28;19921;-56
2022/02/23 15:48:21;;;;;;;;;;;;;;;;;;5050812;28;19919;-59
2022/02/23 15:50:48;;;;;;;;;;;;;;;;;;5048669;28;19920;-55
2022/02/23 15:53:15;;;;;;;;;;;;;;;;;;5049892;28;19916;-58
2022/02/23 15:55:41;;;;;;;;;;;;;;;;;;5050162;28;19960;-56
2022/02/23 15:58:08;;;;;;;;;;;;;;;;;;5050578;28;19909;-57
2022/02/23 16:00:37;;;;;;;;;;;;;;;;;;5046644;28;19916;-57
2022/02/23 16:03:04;;;;;;;;;;;;;;;;;;5048114;28;19917;-57
2022/02/23 16:05:30;;;;;;;;;;;;;;;;;;5053130;28;19909;-59
2022/02/23 16:07:59;;;;;;;;;;;;;;;;;;5035756;28;19908;-56
2022/02/23 16:10:25;;;;;;;;;;;;;;;;;;5053301;28;19909;-58
2022/02/23 16:12:52;;;;;;;;;;;;;;;;;;5053222;28;20005;-59
2022/02/23 16:15:18;;;;;;;;;;;;;;;;;;5053340;28;19995;-57
2022/02/23 16:17:45;;;;;;;;;;;;;;;;;;5053277;28;19915;-55
2022/02/23 16:20:11;;;;;;;;;;;;;;;;;;5053361;28;19913;-57
2022/02/23 16:22:38;;;;;;;;;;;;;;;;;;5052916;28;19917;-56
2022/02/23 16:25:04;;;;;;;;;;;;;;;;;;5053137;28;20018;-57
2022/02/23 16:27:31;;;;;;;;;;;;;;;;;;5053054;28;19913;-58
2022/02/23 16:29:59;;;;;;;;;;;;;;;;;;5052587;28;20095;-56
2022/02/23 16:32:25;;;;;;;;;;;;;;;;;;5052656;28;20308;-58
2022/02/23 16:34:52;;;;;;;;;;;;;;;;;;5052818;28;19913;-57
2022/02/23 16:37:18;;;;;;;;;;;;;;;;;;5053053;28;20414;-57
2022/02/23 16:39:46;;;;;;;;;;;;;;;;;;5052674;28;20374;-58
2022/02/23 16:42:13;;;;;;;;;;;;;;;;;;5052415;28;19917;-54
2022/02/23 16:44:39;;;;;;;;;;;;;;;;;;5052613;28;19952;-57
2022/02/23 16:47:05;;;;;;;;;;;;;;;;;;5052873;28;19908;-56
2022/02/23 16:49:32;;;;;;;;;;;;;;;;;;5053076;28;20070;-57
2022/02/23 16:51:58;;;;;;;;;;;;;;;;;;5052825;28;20002;-58
2022/02/23 16:54:25;;;;;;;;;;;;;;;;;;5053019;28;19999;-59
2022/02/23 16:56:52;;;;;;;;;;;;;;;;;;5052589;28;20370;-58
2022/02/23 16:59:19;;;;;;;;;;;;;;;;;;5052881;28;19916;-58
2022/02/23 17:01:45;;;;;;;;;;;;;;;;;;5052999;28;19917;-58
2022/02/23 17:04:17;;;;;;;;;;;;;;;;;;5052704;28;19909;-58
2022/02/23 17:06:44;;;;;;;;;;;;;;;;;;5052645;28;20274;-57
2022/02/23 17:09:10;;;;;;;;;;;;;;;;;;5052777;28;19963;-58